createdAt,value
2023-05-02T00:01:43.772Z,2.10
2023-05-02T00:04:11.105Z,1.58
2023-05-02T00:06:38.238Z,1.92
2023-05-02T00:09:05.461Z,2.03
2023-05-02T00:11:32.582Z,2.00
2023-05-02T00:13:59.686Z,2.03
2023-05-02T00:16:26.846Z,1.85
2023-05-02T00:18:53.881Z,1.77
2023-05-02T00:21:20.989Z,1.90
2023-05-02T00:23:48.093Z,1.98
2023-05-02T00:26:15.514Z,1.77
2023-05-02T00:28:42.867Z,1.90
2023-05-02T00:31:10.632Z,2.20
2023-05-02T00:33:37.759Z,1.83
2023-05-02T00:36:04.962Z,1.88
2023-05-02T00:38:32.144Z,1.80
2023-05-02T00:40:59.379Z,1.98
2023-05-02T00:43:30.559Z,1.52
2023-05-02T00:45:57.786Z,2.33
2023-05-02T00:48:26.180Z,1.92
2023-05-02T00:50:53.332Z,1.80
2023-05-02T00:53:20.565Z,2.80
2023-05-02T00:55:49.681Z,1.80
2023-05-02T00:58:19.321Z,1.75
2023-05-02T01:01:10.872Z,1.48
2023-05-02T01:04:16.068Z,1.92
2023-05-02T01:07:14.885Z,1.90
2023-05-02T01:10:12.435Z,1.70
2023-05-02T01:12:47.259Z,1.75
2023-05-02T01:15:21.933Z,1.85
2023-05-02T01:17:51.148Z,1.88
2023-05-02T01:20:21.862Z,1.70
2023-05-02T01:22:49.633Z,1.90
2023-05-02T01:25:48.019Z,1.90
2023-05-02T01:28:54.912Z,1.95
2023-05-02T01:31:23.790Z,1.67
2023-05-02T01:33:52.474Z,2.38
2023-05-02T01:36:20.980Z,2.30
2023-05-02T01:38:50.056Z,2.25
2023-05-02T01:41:18.521Z,1.90
2023-05-02T01:43:47.852Z,2.00
2023-05-02T01:46:15.725Z,2.45
2023-05-02T01:48:46.835Z,2.03
2023-05-02T01:51:18.913Z,2.00
2023-05-02T01:53:48.578Z,1.83
2023-05-02T01:56:19.933Z,1.77
2023-05-02T01:58:48.720Z,1.90
2023-05-02T02:01:17.496Z,2.00
2023-05-02T02:03:46.928Z,1.67
2023-05-02T02:06:16.237Z,1.87
2023-05-02T02:08:43.507Z,1.90
2023-05-02T02:11:13.289Z,1.65
2023-05-02T02:13:49.119Z,1.90
2023-05-02T02:16:23.091Z,1.52
2023-05-02T02:18:52.016Z,2.30
2023-05-02T02:21:21.631Z,1.60
2023-05-02T02:23:51.370Z,1.88
2023-05-02T02:26:21.177Z,1.73
2023-05-02T02:28:48.809Z,1.85
2023-05-02T02:31:16.068Z,1.60
2023-05-02T02:33:43.513Z,2.08
2023-05-02T02:36:21.625Z,1.90
2023-05-02T02:38:58.227Z,1.70
2023-05-02T02:41:34.535Z,1.73
2023-05-02T02:44:13.532Z,2.08
2023-05-02T02:47:09.486Z,1.90
2023-05-02T02:49:51.161Z,1.70
2023-05-02T02:52:33.987Z,1.67
2023-05-02T02:55:14.778Z,1.73
2023-05-02T02:57:55.639Z,1.58
2023-05-02T03:00:27.572Z,1.60
2023-05-02T03:02:56.204Z,1.95
2023-05-02T03:05:24.090Z,1.70
2023-05-02T03:07:51.802Z,1.60
2023-05-02T03:10:19.228Z,2.00
2023-05-02T03:12:47.855Z,1.50
2023-05-02T03:15:59.447Z,2.00
2023-05-02T03:18:26.621Z,1.48
2023-05-02T03:20:53.679Z,1.55
2023-05-02T03:23:20.831Z,1.70
2023-05-02T03:25:47.909Z,2.05
2023-05-02T03:28:15.059Z,1.90
2023-05-02T03:30:42.378Z,1.50
2023-05-02T03:33:09.904Z,1.70
2023-05-02T03:35:37.035Z,1.80
2023-05-02T03:38:04.706Z,1.88
2023-05-02T03:40:31.868Z,1.48
2023-05-02T03:42:58.969Z,1.73
2023-05-02T03:45:26.181Z,1.50
2023-05-02T03:47:53.303Z,1.73
2023-05-02T03:50:20.486Z,1.80
2023-05-02T03:52:47.872Z,1.77
2023-05-02T03:55:15.322Z,1.38
2023-05-02T03:57:42.403Z,1.80
2023-05-02T04:00:10.367Z,1.67
2023-05-02T04:02:37.905Z,1.60
2023-05-02T04:05:05.696Z,1.50
2023-05-02T04:07:32.831Z,1.65
2023-05-02T04:09:59.994Z,1.48
2023-05-02T04:12:27.414Z,1.63
2023-05-02T04:14:55.163Z,1.58
2023-05-02T04:17:22.399Z,1.52
2023-05-02T04:19:49.600Z,1.65
2023-05-02T04:22:16.788Z,2.15
2023-05-02T04:24:43.829Z,1.50
2023-05-02T04:27:12.512Z,1.55
2023-05-02T04:29:41.582Z,1.73
2023-05-02T04:32:08.784Z,1.40
2023-05-02T04:34:35.966Z,1.40
2023-05-02T04:37:03.176Z,1.58
2023-05-02T04:39:30.281Z,1.30
2023-05-02T04:41:57.404Z,1.77
2023-05-02T04:44:24.528Z,1.80
2023-05-02T04:46:52.139Z,1.88
2023-05-02T04:49:19.465Z,1.90
2023-05-02T04:51:46.688Z,1.90
2023-05-02T04:54:13.859Z,1.75
2023-05-02T04:56:41.387Z,1.88
2023-05-02T04:59:08.442Z,2.28
2023-05-02T05:01:35.749Z,1.85
2023-05-02T05:04:03.181Z,1.73
2023-05-02T05:06:30.392Z,1.88
2023-05-02T05:08:57.621Z,1.60
2023-05-02T05:11:25.733Z,1.92
2023-05-02T05:13:53.085Z,1.58
2023-05-02T05:16:20.228Z,1.92
2023-05-02T05:18:47.471Z,1.60
2023-05-02T05:21:14.524Z,1.75
2023-05-02T05:23:46.254Z,1.92
2023-05-02T05:26:15.719Z,1.73
2023-05-02T05:28:44.175Z,1.53
2023-05-02T05:31:16.585Z,1.90
2023-05-02T05:33:45.124Z,1.90
2023-05-02T05:36:15.237Z,1.95
2023-05-02T05:38:42.308Z,1.45
2023-05-02T05:41:09.797Z,1.92
2023-05-02T05:43:38.333Z,1.80
2023-05-02T05:46:06.927Z,1.83
2023-05-02T05:48:34.885Z,1.80
2023-05-02T05:51:05.684Z,1.60
2023-05-02T05:53:33.195Z,1.70
2023-05-02T05:56:09.346Z,2.17
2023-05-02T05:58:36.781Z,2.08
2023-05-02T06:01:03.985Z,2.33
2023-05-02T06:03:31.357Z,2.03
2023-05-02T06:05:58.742Z,1.95
2023-05-02T06:08:26.107Z,2.20
2023-05-02T06:10:53.420Z,2.08
2023-05-02T06:13:20.665Z,3.00
2023-05-02T06:15:47.772Z,2.20
2023-05-02T06:18:15.739Z,1.77
2023-05-02T06:20:43.281Z,2.00
2023-05-02T06:23:10.517Z,2.22
2023-05-02T06:25:38.576Z,2.15
2023-05-02T06:28:06.325Z,2.22
2023-05-02T06:30:33.552Z,2.25
2023-05-02T06:33:01.045Z,2.45
2023-05-02T06:35:28.189Z,2.13
2023-05-02T06:37:55.420Z,1.90
2023-05-02T06:40:23.281Z,2.75
2023-05-02T06:42:51.063Z,2.00
2023-05-02T06:45:18.242Z,2.08
2023-05-02T06:47:45.573Z,2.05
2023-05-02T06:50:12.773Z,2.20
2023-05-02T06:52:39.877Z,2.40
2023-05-02T06:55:08.233Z,2.38
2023-05-02T06:57:35.380Z,2.15
2023-05-02T07:00:02.942Z,2.60
2023-05-02T07:02:30.588Z,2.30
2023-05-02T07:04:57.719Z,2.38
2023-05-02T07:07:25.921Z,2.38
2023-05-02T07:09:56.537Z,2.22
2023-05-02T07:12:23.687Z,3.20
2023-05-02T07:14:51.024Z,2.95
2023-05-02T07:17:18.684Z,2.40
2023-05-02T07:19:46.007Z,2.50
2023-05-02T07:22:13.252Z,2.08
2023-05-02T07:24:43.602Z,2.33
2023-05-02T07:27:12.024Z,2.10
2023-05-02T07:29:40.137Z,1.95
2023-05-02T07:32:07.349Z,3.00
2023-05-02T07:34:34.538Z,2.88
2023-05-02T07:37:01.757Z,2.22
2023-05-02T07:39:29.224Z,1.80
2023-05-02T07:41:57.146Z,2.38
2023-05-02T07:44:24.445Z,2.25
2023-05-02T07:46:52.859Z,2.00
2023-05-02T07:49:20.540Z,2.42
2023-05-02T07:51:47.723Z,2.30
2023-05-02T07:54:16.983Z,2.90
2023-05-02T07:56:44.225Z,1.70
2023-05-02T07:59:11.584Z,2.00
2023-05-02T08:01:40.056Z,2.50
2023-05-02T08:04:07.805Z,2.05
2023-05-02T08:06:37.250Z,2.70
2023-05-02T08:09:04.433Z,2.03
2023-05-02T08:11:31.534Z,2.03
2023-05-02T08:13:58.604Z,2.33
2023-05-02T08:16:25.889Z,2.03
2023-05-02T08:18:54.143Z,1.95
2023-05-02T08:21:21.290Z,2.38
2023-05-02T08:23:48.402Z,2.20
2023-05-02T08:26:16.241Z,2.50
2023-05-02T08:28:43.436Z,1.98
2023-05-02T08:31:11.518Z,2.33
2023-05-02T08:33:38.624Z,2.00
2023-05-02T08:36:14.022Z,2.42
2023-05-02T08:38:42.499Z,2.20
2023-05-02T08:41:18.226Z,2.13
2023-05-02T08:43:46.501Z,1.95
2023-05-02T08:46:16.101Z,1.98
2023-05-02T08:48:45.872Z,2.70
2023-05-02T08:51:15.985Z,2.38
2023-05-02T08:56:11.961Z,1.83
2023-05-02T08:58:41.016Z,2.30
2023-05-02T09:01:17.784Z,2.00
2023-05-02T09:03:47.105Z,1.95
2023-05-02T09:06:22.206Z,2.10
2023-05-02T09:08:50.994Z,2.42
2023-05-02T09:11:19.618Z,2.40
2023-05-02T09:13:48.814Z,2.25
2023-05-02T09:16:26.032Z,2.20
2023-05-02T09:18:55.474Z,2.10
2023-05-02T09:21:37.179Z,2.08
2023-05-02T09:24:18.419Z,1.75
2023-05-02T09:27:04.607Z,2.10
2023-05-02T09:29:39.092Z,2.15
2023-05-02T09:32:07.562Z,2.00
2023-05-02T09:34:35.087Z,1.48
2023-05-02T09:37:04.185Z,1.80
2023-05-02T09:39:32.252Z,2.10
2023-05-02T09:41:59.902Z,1.80
2023-05-02T09:44:36.967Z,2.20
2023-05-02T09:47:04.940Z,2.30
2023-05-02T09:49:45.359Z,2.20
2023-05-02T09:52:14.790Z,2.05
2023-05-02T09:54:43.152Z,2.20
2023-05-02T09:57:11.511Z,2.05
2023-05-02T09:59:40.113Z,2.38
2023-05-02T10:02:09.940Z,2.50
2023-05-02T10:04:37.780Z,2.53
2023-05-02T10:07:06.794Z,2.33
2023-05-02T10:09:37.342Z,2.10
2023-05-02T10:12:05.377Z,2.20
2023-05-02T10:14:35.696Z,2.42
2023-05-02T10:17:14.331Z,2.35
2023-05-02T10:20:07.405Z,2.20
2023-05-02T10:22:36.378Z,2.33
2023-05-02T10:25:04.794Z,2.40
2023-05-02T10:27:33.286Z,2.20
2023-05-02T10:30:01.355Z,2.15
2023-05-02T10:32:32.360Z,2.10
2023-05-02T10:35:04.306Z,2.30
2023-05-02T10:37:34.115Z,2.45
2023-05-02T10:40:01.473Z,2.67
2023-05-02T10:42:30.385Z,2.50
2023-05-02T10:44:58.127Z,2.28
2023-05-02T10:47:27.435Z,2.50
2023-05-02T10:49:57.584Z,4.13
2023-05-02T10:52:30.804Z,2.40
2023-05-02T10:55:20.713Z,2.47
2023-05-02T10:58:26.911Z,2.83
2023-05-02T11:00:54.239Z,3.17
2023-05-02T11:03:56.670Z,3.05
2023-05-02T11:06:26.394Z,3.05
2023-05-02T11:08:54.342Z,2.85
2023-05-02T11:11:44.926Z,2.90
2023-05-02T11:14:32.621Z,2.47
2023-05-02T11:17:08.823Z,3.25
2023-05-02T11:20:15.577Z,2.60
2023-05-02T11:22:44.989Z,3.33
2023-05-02T11:25:31.062Z,2.80
2023-05-02T11:27:59.098Z,2.60
2023-05-02T11:30:44.243Z,3.20
2023-05-02T11:33:13.356Z,3.20
2023-05-02T11:35:43.551Z,2.70
2023-05-02T11:38:16.868Z,2.65
2023-05-02T11:40:52.234Z,3.35
2023-05-02T11:43:21.785Z,3.22
2023-05-02T11:45:49.648Z,2.88
2023-05-02T11:48:20.857Z,3.20
2023-05-02T11:50:52.707Z,3.25
2023-05-02T11:53:25.752Z,3.33
2023-05-02T11:55:54.768Z,3.13
2023-05-02T11:58:24.350Z,2.88
2023-05-02T12:00:52.974Z,2.90
2023-05-02T12:03:28.452Z,2.88
2023-05-02T12:05:56.306Z,2.55
2023-05-02T12:08:28.783Z,2.75
2023-05-02T12:10:57.007Z,3.05
2023-05-02T12:13:26.519Z,2.70
2023-05-02T12:15:54.993Z,2.95
2023-05-02T12:18:24.142Z,2.50
2023-05-02T12:20:52.920Z,2.63
2023-05-02T12:23:21.786Z,3.10
2023-05-02T12:25:49.462Z,2.90
2023-05-02T12:28:19.754Z,2.83
2023-05-02T12:30:49.683Z,2.72
2023-05-02T12:33:17.512Z,2.47
2023-05-02T12:35:49.054Z,2.80
2023-05-02T12:38:21.280Z,3.08
2023-05-02T12:40:57.875Z,3.03
2023-05-02T12:43:25.037Z,2.92
2023-05-02T12:46:10.305Z,2.60
2023-05-02T12:48:40.927Z,3.28
2023-05-02T12:51:21.616Z,3.53
2023-05-02T12:53:48.752Z,2.80
2023-05-02T12:56:16.635Z,3.13
2023-05-02T12:58:47.018Z,2.67
2023-05-02T13:01:15.572Z,2.60
2023-05-02T13:03:43.912Z,2.63
2023-05-02T13:06:11.567Z,2.63
2023-05-02T13:08:39.414Z,2.63
2023-05-02T13:11:06.545Z,2.65
2023-05-02T13:13:35.275Z,2.95
2023-05-02T13:16:02.854Z,3.33
2023-05-02T13:18:30.037Z,3.03
2023-05-02T13:20:58.216Z,2.70
2023-05-02T13:23:25.363Z,3.08
2023-05-02T13:25:52.490Z,2.72
2023-05-02T13:28:19.680Z,3.30
2023-05-02T13:30:46.831Z,2.67
2023-05-02T13:33:14.590Z,2.83
2023-05-02T13:35:42.933Z,2.90
2023-05-02T13:38:10.075Z,2.97
2023-05-02T13:40:37.184Z,3.50
2023-05-02T13:43:04.277Z,3.17
2023-05-02T13:45:32.400Z,2.58
2023-05-02T13:47:59.968Z,3.10
2023-05-02T13:50:27.343Z,3.08
2023-05-02T13:52:54.397Z,3.15
2023-05-02T13:55:21.827Z,3.33
2023-05-02T13:57:50.028Z,2.65
2023-05-02T14:00:17.954Z,2.83
2023-05-02T14:02:48.330Z,2.67
2023-05-02T14:05:15.978Z,2.58
2023-05-02T14:07:43.057Z,2.90
2023-05-02T14:10:10.552Z,3.00
2023-05-02T14:12:38.520Z,2.85
2023-05-02T14:15:06.618Z,2.70
2023-05-02T14:17:34.010Z,2.85
2023-05-02T14:20:01.244Z,2.58
2023-05-02T14:22:28.817Z,4.07
2023-05-02T14:24:56.274Z,3.75
2023-05-02T14:27:23.608Z,3.95
2023-05-02T14:29:50.875Z,3.67
2023-05-02T14:32:18.653Z,3.63
2023-05-02T14:34:45.734Z,4.07
2023-05-02T14:37:12.781Z,3.50
2023-05-02T14:39:40.454Z,3.58
2023-05-02T14:42:07.868Z,3.40
2023-05-02T14:44:35.850Z,3.38
2023-05-02T14:47:03.190Z,3.25
2023-05-02T14:49:30.314Z,3.03
2023-05-02T14:51:58.601Z,3.00
2023-05-02T14:54:30.738Z,3.33
2023-05-02T14:56:58.263Z,3.47
2023-05-02T14:59:29.246Z,3.28
2023-05-02T15:01:56.604Z,3.15
2023-05-02T15:04:24.466Z,4.13
2023-05-02T15:06:54.704Z,3.70
2023-05-02T15:09:22.055Z,2.97
2023-05-02T15:11:49.222Z,3.25
2023-05-02T15:14:16.338Z,3.45
2023-05-02T15:16:43.505Z,4.00
2023-05-02T15:19:11.420Z,3.35
2023-05-02T15:21:38.502Z,4.07
2023-05-02T15:24:06.370Z,3.45
2023-05-02T15:26:34.491Z,3.15
2023-05-02T15:29:01.997Z,3.00
2023-05-02T15:31:29.989Z,3.53
2023-05-02T15:33:57.096Z,3.90
2023-05-02T15:36:29.867Z,4.00
2023-05-02T15:38:57.472Z,4.22
2023-05-02T15:41:27.474Z,3.47
2023-05-02T15:43:54.634Z,3.67
2023-05-02T15:46:22.065Z,3.75
2023-05-02T15:48:50.995Z,3.22
2023-05-02T15:51:18.495Z,3.63
2023-05-02T15:53:49.991Z,3.55
2023-05-02T15:56:17.182Z,3.75
2023-05-02T15:58:44.328Z,3.75
2023-05-02T16:01:11.510Z,4.57
2023-05-02T16:03:38.714Z,3.30
2023-05-02T16:06:07.816Z,3.13
2023-05-02T16:08:35.145Z,3.25
2023-05-02T16:11:02.217Z,3.67
2023-05-02T16:13:29.356Z,3.42
2023-05-02T16:15:56.655Z,3.28
2023-05-02T16:18:28.586Z,3.13
2023-05-02T16:20:57.254Z,2.97
2023-05-02T16:23:26.036Z,3.30
2023-05-02T16:26:03.066Z,3.33
2023-05-02T16:28:30.958Z,3.20
2023-05-02T16:30:58.180Z,3.97
2023-05-02T16:33:25.369Z,3.75
2023-05-02T16:36:05.791Z,3.95
2023-05-02T16:38:33.727Z,3.78
2023-05-02T16:41:05.213Z,3.15
2023-05-02T16:43:33.070Z,3.42
2023-05-02T16:46:05.143Z,3.80
2023-05-02T16:48:33.080Z,4.38
2023-05-02T16:51:02.560Z,4.13
2023-05-02T16:53:31.883Z,3.90
2023-05-02T16:55:59.865Z,3.03
2023-05-02T16:58:29.358Z,2.90
2023-05-02T17:00:56.996Z,3.40
2023-05-02T17:03:24.141Z,3.38
2023-05-02T17:05:51.393Z,2.97
2023-05-02T17:08:18.449Z,3.08
2023-05-02T17:10:49.865Z,3.08
2023-05-02T17:13:17.099Z,2.97
2023-05-02T17:15:44.675Z,3.50
2023-05-02T17:18:12.070Z,3.60
2023-05-02T17:20:39.346Z,3.83
2023-05-02T17:23:06.464Z,3.22
2023-05-02T17:25:33.563Z,3.10
2023-05-02T17:28:00.749Z,3.13
2023-05-02T17:30:29.521Z,3.10
2023-05-02T17:32:57.010Z,3.00
2023-05-02T17:35:24.225Z,2.72
2023-05-02T17:37:51.265Z,2.75
2023-05-02T17:40:18.692Z,3.70
2023-05-02T17:42:46.769Z,3.70
2023-05-02T17:45:14.066Z,3.53
2023-05-02T17:47:41.341Z,4.22
2023-05-02T17:50:10.143Z,3.20
2023-05-02T17:52:37.497Z,2.95
2023-05-02T17:55:05.100Z,3.10
2023-05-02T17:57:32.344Z,3.20
2023-05-02T18:00:00.094Z,3.10
2023-05-02T18:02:27.800Z,3.20
2023-05-02T18:04:56.309Z,2.97
2023-05-02T18:07:29.142Z,3.25
2023-05-02T18:09:57.255Z,2.60
2023-05-02T18:12:24.517Z,3.80
2023-05-02T18:14:52.853Z,2.65
2023-05-02T18:17:23.295Z,2.90
2023-05-02T18:19:50.532Z,3.17
2023-05-02T18:22:21.906Z,3.47
2023-05-02T18:24:50.020Z,2.55
2023-05-02T18:27:17.803Z,3.30
2023-05-02T18:29:45.089Z,2.67
2023-05-02T18:32:12.265Z,3.60
2023-05-02T18:34:41.429Z,3.17
2023-05-02T18:37:08.587Z,3.33
2023-05-02T18:39:36.344Z,3.35
2023-05-02T18:42:04.493Z,3.30
2023-05-02T18:44:32.009Z,3.20
2023-05-02T18:46:59.362Z,3.30
2023-05-02T18:49:26.833Z,2.97
2023-05-02T18:51:54.610Z,3.30
2023-05-02T18:54:23.552Z,3.30
2023-05-02T18:56:50.703Z,2.60
2023-05-02T18:59:19.116Z,3.10
2023-05-02T19:01:48.880Z,3.38
2023-05-02T19:04:16.053Z,2.80
2023-05-02T19:06:43.198Z,3.95
2023-05-02T19:09:17.991Z,3.08
2023-05-02T19:11:45.067Z,3.40
2023-05-02T19:14:13.752Z,3.63
2023-05-02T19:16:41.288Z,3.10
2023-05-02T19:19:08.623Z,2.65
2023-05-02T19:21:38.357Z,2.88
2023-05-02T19:24:05.718Z,2.92
2023-05-02T19:26:32.924Z,3.00
2023-05-02T19:29:00.029Z,3.13
2023-05-02T19:31:27.218Z,3.17
2023-05-02T19:33:55.056Z,3.00
2023-05-02T19:36:23.830Z,3.05
2023-05-02T19:38:52.260Z,3.25
2023-05-02T19:41:19.357Z,2.65
2023-05-02T19:43:46.386Z,3.05
2023-05-02T19:46:15.412Z,2.72
2023-05-02T19:48:42.610Z,2.63
2023-05-02T19:51:09.853Z,3.30
2023-05-02T19:53:38.132Z,2.90
2023-05-02T19:56:10.271Z,3.22
2023-05-02T19:58:37.365Z,3.15
2023-05-02T20:01:05.001Z,2.60
2023-05-02T20:03:32.371Z,2.97
2023-05-02T20:05:59.533Z,2.55
2023-05-02T20:08:28.196Z,3.00
2023-05-02T20:10:56.409Z,2.92
2023-05-02T20:13:23.599Z,2.75
2023-05-02T20:15:52.027Z,2.60
2023-05-02T20:18:19.440Z,3.05
2023-05-02T20:20:46.579Z,2.60
2023-05-02T20:23:14.279Z,2.75
2023-05-02T20:25:42.894Z,2.67
2023-05-02T20:28:10.445Z,3.17
2023-05-02T20:30:39.240Z,2.38
2023-05-02T20:33:14.782Z,2.70
2023-05-02T20:35:43.029Z,2.60
2023-05-02T20:38:10.189Z,2.72
2023-05-02T20:40:40.877Z,2.88
2023-05-02T20:43:08.933Z,2.70
2023-05-02T20:45:36.147Z,2.88
2023-05-02T20:48:03.345Z,2.78
2023-05-02T20:50:31.284Z,2.20
2023-05-02T20:52:58.509Z,2.40
2023-05-02T20:55:25.742Z,2.47
2023-05-02T20:57:53.483Z,2.45
2023-05-02T21:00:24.334Z,2.45
2023-05-02T21:02:51.568Z,2.33
2023-05-02T21:05:18.710Z,2.28
2023-05-02T21:07:45.820Z,2.95
2023-05-02T21:10:12.973Z,2.35
2023-05-02T21:12:40.142Z,2.33
2023-05-02T21:15:08.400Z,2.53
2023-05-02T21:17:35.784Z,2.60
2023-05-02T21:20:03.289Z,2.90
2023-05-02T21:22:30.496Z,2.30
2023-05-02T21:24:57.601Z,2.50
2023-05-02T21:27:24.814Z,2.47
2023-05-02T21:29:52.109Z,2.20
2023-05-02T21:32:19.299Z,2.47
2023-05-02T21:34:46.582Z,2.30
2023-05-02T21:37:13.699Z,2.65
2023-05-02T21:39:40.815Z,2.03
2023-05-02T21:42:07.921Z,2.28
2023-05-02T21:44:35.210Z,2.78
2023-05-02T21:47:02.820Z,2.13
2023-05-02T21:49:30.966Z,2.17
2023-05-02T21:51:58.624Z,2.20
2023-05-02T21:54:25.947Z,2.67
2023-05-02T21:56:56.031Z,2.30
2023-05-02T21:59:23.158Z,2.17
2023-05-02T22:01:50.296Z,2.33
2023-05-02T22:04:18.422Z,2.63
2023-05-02T22:06:52.298Z,2.42
2023-05-02T22:09:20.957Z,2.58
2023-05-02T22:11:48.139Z,2.10
2023-05-02T22:14:15.502Z,2.47
2023-05-02T22:16:43.366Z,2.10
2023-05-02T22:19:17.820Z,2.67
2023-05-02T22:21:44.920Z,2.13
2023-05-02T22:24:11.953Z,1.80
2023-05-02T22:26:39.206Z,2.25
2023-05-02T22:29:06.935Z,2.35
2023-05-02T22:31:34.106Z,2.08
2023-05-02T22:34:01.245Z,2.05
2023-05-02T22:36:28.340Z,2.10
2023-05-02T22:38:55.613Z,2.20
2023-05-02T22:41:22.679Z,2.20
2023-05-02T22:43:50.496Z,2.60
2023-05-02T22:46:18.301Z,2.13
2023-05-02T22:48:45.424Z,2.42
2023-05-02T22:51:12.687Z,2.28
2023-05-02T22:53:40.297Z,2.60
2023-05-02T22:56:07.487Z,2.20
2023-05-02T22:58:34.572Z,1.80
2023-05-02T23:01:02.199Z,2.33
2023-05-02T23:03:29.343Z,2.15
2023-05-02T23:05:56.565Z,1.63
2023-05-02T23:08:23.646Z,1.90
2023-05-02T23:10:50.690Z,2.40
2023-05-02T23:13:17.993Z,1.90
2023-05-02T23:15:45.180Z,2.22
2023-05-02T23:18:12.437Z,1.90
2023-05-02T23:20:39.569Z,2.47
2023-05-02T23:23:06.772Z,2.10
2023-05-02T23:25:35.165Z,2.40
2023-05-02T23:28:02.406Z,2.10
2023-05-02T23:30:33.363Z,2.20
2023-05-02T23:33:01.095Z,2.20
2023-05-02T23:35:28.192Z,2.22
2023-05-02T23:37:55.311Z,2.00
2023-05-02T23:40:22.396Z,2.10
2023-05-02T23:42:49.474Z,1.70
2023-05-02T23:45:16.759Z,1.83
2023-05-02T23:47:43.873Z,1.90
2023-05-02T23:50:11.361Z,1.73
2023-05-02T23:52:38.489Z,1.92
2023-05-02T23:55:10.529Z,1.70
2023-05-02T23:57:37.892Z,2.35
